Time;durP1;ratioP1;P1;durP2;ratioP2;P2;SDS_P1;SDS_P2;PMS_P1;PMS_P2;Temp;Humidity;BMP_temperature;BMP_pressure;BME280_temperature;BME280_humidity;BME280_pressure;Samples;Min_cycle;Max_cycle;Signal;HPM_P1;HPM_P2
2022/10/27 00:01:20;;;;;;;63.92;22.67;;;;;;;;;;8362089;28;20455;-86
2022/10/27 00:05:23;;;;;;;54.47;20.80;;;;;;;;;;8362368;28;20110;-84
2022/10/27 00:09:27;;;;;;;50.80;19.70;;;;;;;;;;8362061;28;20069;-85
2022/10/27 00:13:30;;;;;;;52.40;21.13;;;;;;;;;;8361853;28;20123;-85
2022/10/27 00:17:32;;;;;;;63.28;22.95;;;;;;;;;;8362184;28;20136;-85
2022/10/27 00:21:35;;;;;;;61.58;22.70;;;;;;;;;;8362134;28;20090;-85
2022/10/27 00:25:38;;;;;;;61.30;21.60;;;;;;;;;;8361782;28;20049;-85
2022/10/27 00:29:41;;;;;;;59.08;22.88;;;;;;;;;;8365613;28;20393;-85
2022/10/27 00:33:43;;;;;;;103.22;37.20;;;;;;;;;;8366965;28;20052;-85
2022/10/27 00:37:46;;;;;;;138.27;44.50;;;;;;;;;;8367783;28;20049;-86
2022/10/27 00:41:50;;;;;;;84.18;30.45;;;;;;;;;;8368037;28;20095;-85
2022/10/27 00:45:53;;;;;;;75.07;28.23;;;;;;;;;;8393781;28;20049;-86
2022/10/27 00:50:00;;;;;;;71.35;26.77;;;;;;;;;;8400834;28;20127;-86
2022/10/27 00:54:02;;;;;;;57.45;21.75;;;;;;;;;;8400776;28;20684;-84
2022/10/27 00:58:09;;;;;;;48.28;20.05;;;;;;;;;;8400437;28;20041;-85
2022/10/27 01:02:13;;;;;;;49.08;20.13;;;;;;;;;;8400628;28;20044;-86
2022/10/27 01:06:16;;;;;;;52.50;19.63;;;;;;;;;;8400348;28;20057;-86
2022/10/27 01:10:19;;;;;;;79.00;29.45;;;;;;;;;;8400439;28;20044;-86
2022/10/27 01:14:23;;;;;;;88.15;39.38;;;;;;;;;;8400056;28;20480;-85
2022/10/27 01:18:33;;;;;;;76.80;34.30;;;;;;;;;;8399882;28;20097;-85
2022/10/27 01:22:40;;;;;;;79.13;33.45;;;;;;;;;;8380474;28;20040;-85
2022/10/27 01:26:49;;;;;;;66.80;28.83;;;;;;;;;;8400031;28;20055;-85
2022/10/27 01:31:00;;;;;;;50.75;24.20;;;;;;;;;;8400067;28;20472;-85
2022/10/27 01:35:08;;;;;;;50.33;21.50;;;;;;;;;;8399819;28;20529;-84
2022/10/27 01:39:17;;;;;;;48.35;20.45;;;;;;;;;;8399549;28;20062;-86
2022/10/27 01:43:22;;;;;;;45.08;18.73;;;;;;;;;;8398258;28;20056;-84
2022/10/27 01:47:27;;;;;;;52.08;19.75;;;;;;;;;;8398573;28;20044;-85
2022/10/27 01:51:29;;;;;;;48.60;19.20;;;;;;;;;;8398899;28;20075;-85
2022/10/27 01:55:41;;;;;;;46.35;17.90;;;;;;;;;;8398841;28;20071;-85
2022/10/27 01:59:58;;;;;;;43.38;18.58;;;;;;;;;;8398645;28;20055;-84
2022/10/27 02:04:11;;;;;;;49.60;17.95;;;;;;;;;;8398954;28;20052;-84
2022/10/27 02:08:22;;;;;;;53.58;19.40;;;;;;;;;;8398328;28;20036;-85
2022/10/27 02:12:28;;;;;;;41.75;18.35;;;;;;;;;;8398708;28;20552;-86
2022/10/27 02:16:35;;;;;;;69.93;23.48;;;;;;;;;;8398030;28;20052;-85
2022/10/27 02:20:43;;;;;;;72.80;34.70;;;;;;;;;;8398131;28;20047;-84
2022/10/27 02:24:46;;;;;;;81.07;37.70;;;;;;;;;;8397883;28;20093;-85
2022/10/27 02:28:54;;;;;;;72.15;31.17;;;;;;;;;;8398179;28;20120;-85
2022/10/27 02:32:57;;;;;;;93.13;43.50;;;;;;;;;;8397608;28;20044;-85
2022/10/27 02:37:00;;;;;;;73.35;30.88;;;;;;;;;;8397935;28;20048;-84
2022/10/27 02:41:03;;;;;;;71.15;28.60;;;;;;;;;;8396398;28;20059;-86
2022/10/27 02:45:06;;;;;;;46.95;19.30;;;;;;;;;;8393978;28;20052;-84
2022/10/27 02:49:09;;;;;;;50.75;18.52;;;;;;;;;;8397070;28;20052;-84
2022/10/27 02:53:12;;;;;;;41.38;17.73;;;;;;;;;;8396308;28;20044;-85
2022/10/27 02:57:16;;;;;;;36.70;15.88;;;;;;;;;;8393075;28;20048;-85
2022/10/27 03:01:19;;;;;;;42.42;17.75;;;;;;;;;;8394732;28;20412;-85
2022/10/27 03:05:22;;;;;;;33.83;15.93;;;;;;;;;;8394362;28;20119;-85
2022/10/27 03:09:26;;;;;;;43.38;18.45;;;;;;;;;;8393021;28;20123;-85
2022/10/27 03:13:28;;;;;;;46.83;20.77;;;;;;;;;;8395607;28;20051;-85
2022/10/27 03:17:30;;;;;;;49.17;20.33;;;;;;;;;;8395293;28;20047;-86
2022/10/27 03:21:33;;;;;;;45.47;20.08;;;;;;;;;;8394063;28;20037;-85
2022/10/27 03:25:42;;;;;;;40.55;17.75;;;;;;;;;;8393582;28;20128;-84
2022/10/27 03:29:44;;;;;;;44.35;18.60;;;;;;;;;;8396010;28;20048;-84
2022/10/27 03:33:47;;;;;;;73.78;31.65;;;;;;;;;;8395885;28;20051;-84
2022/10/27 03:37:55;;;;;;;230.55;97.60;;;;;;;;;;8390911;28;20098;-86
2022/10/27 03:41:59;;;;;;;55.22;24.98;;;;;;;;;;8383313;28;20115;-85
2022/10/27 03:46:02;;;;;;;54.20;20.15;;;;;;;;;;8395336;28;20060;-85
2022/10/27 03:50:04;;;;;;;58.35;21.50;;;;;;;;;;8395531;28;20488;-84
2022/10/27 03:54:07;;;;;;;51.67;20.23;;;;;;;;;;8395398;28;20051;-85
2022/10/27 03:58:12;;;;;;;43.35;16.98;;;;;;;;;;8395947;28;20509;-84
2022/10/27 04:02:16;;;;;;;43.58;17.08;;;;;;;;;;8395472;28;20443;-85
2022/10/27 04:06:19;;;;;;;42.28;17.67;;;;;;;;;;8401968;28;20074;-85
2022/10/27 04:10:21;;;;;;;46.22;17.90;;;;;;;;;;8401077;28;20450;-84
2022/10/27 04:14:25;;;;;;;46.35;17.67;;;;;;;;;;8402330;28;20555;-84
2022/10/27 04:18:28;;;;;;;42.45;16.55;;;;;;;;;;8401947;28;20048;-84
2022/10/27 04:22:30;;;;;;;39.38;15.90;;;;;;;;;;8401542;28;20047;-84
2022/10/27 04:26:32;;;;;;;45.78;17.63;;;;;;;;;;8401793;28;20048;-85
2022/10/27 04:30:36;;;;;;;59.38;21.33;;;;;;;;;;8401418;28;20064;-84
2022/10/27 04:34:39;;;;;;;39.15;16.90;;;;;;;;;;8401079;28;20141;-85
2022/10/27 04:38:41;;;;;;;43.25;17.45;;;;;;;;;;8401253;28;20051;-85
2022/10/27 04:42:47;;;;;;;41.92;18.98;;;;;;;;;;8400916;28;20040;-83
2022/10/27 04:46:50;;;;;;;46.63;19.05;;;;;;;;;;8401095;28;20063;-84
2022/10/27 04:50:53;;;;;;;68.30;29.98;;;;;;;;;;8400118;28;20369;-84
2022/10/27 04:54:55;;;;;;;103.30;46.20;;;;;;;;;;8399743;28;20064;-84
2022/10/27 04:58:57;;;;;;;82.25;37.95;;;;;;;;;;8399695;28;20480;-85
2022/10/27 05:03:01;;;;;;;81.05;38.20;;;;;;;;;;8400448;28;20045;-84
2022/10/27 05:07:04;;;;;;;63.42;25.98;;;;;;;;;;8398108;28;20426;-86
2022/10/27 05:11:06;;;;;;;62.63;22.60;;;;;;;;;;8400288;28;20075;-84
2022/10/27 05:15:09;;;;;;;52.97;18.98;;;;;;;;;;8399755;28;20554;-84
2022/10/27 05:19:13;;;;;;;82.50;36.35;;;;;;;;;;8398380;28;20094;-86
2022/10/27 05:23:16;;;;;;;46.20;17.30;;;;;;;;;;8399706;28;20056;-85
2022/10/27 05:27:18;;;;;;;56.63;20.15;;;;;;;;;;8399788;28;20547;-85
2022/10/27 05:31:20;;;;;;;56.45;22.13;;;;;;;;;;8399657;28;20136;-85
2022/10/27 05:35:24;;;;;;;57.72;22.50;;;;;;;;;;8399523;28;20490;-85
2022/10/27 05:39:27;;;;;;;56.90;19.48;;;;;;;;;;8399216;28;20491;-85
2022/10/27 05:43:29;;;;;;;57.17;21.15;;;;;;;;;;8399082;28;20080;-86
2022/10/27 05:47:32;;;;;;;93.43;34.33;;;;;;;;;;8395677;28;20040;-87
2022/10/27 05:51:35;;;;;;;86.30;30.83;;;;;;;;;;8398842;28;20036;-85
2022/10/27 05:55:38;;;;;;;69.35;27.23;;;;;;;;;;8398965;28;20468;-84
2022/10/27 05:59:40;;;;;;;93.85;34.30;;;;;;;;;;8384772;28;20040;-84
2022/10/27 06:03:43;;;;;;;165.57;60.88;;;;;;;;;;8396285;28;20036;-86
2022/10/27 06:07:46;;;;;;;64.95;26.05;;;;;;;;;;8384070;28;20102;-86
2022/10/27 06:11:49;;;;;;;54.60;23.38;;;;;;;;;;8398745;28;20070;-84
2022/10/27 06:15:51;;;;;;;56.63;23.98;;;;;;;;;;8398130;28;20041;-84
2022/10/27 06:19:54;;;;;;;65.57;23.98;;;;;;;;;;8397969;28;20043;-84
2022/10/27 06:23:57;;;;;;;65.25;23.25;;;;;;;;;;8396776;28;20052;-84
2022/10/27 06:28:00;;;;;;;55.78;21.70;;;;;;;;;;8396946;28;20044;-84
2022/10/27 06:32:02;;;;;;;47.90;22.58;;;;;;;;;;8397485;28;20048;-85
2022/10/27 06:36:05;;;;;;;59.83;22.50;;;;;;;;;;8397759;28;20044;-85
2022/10/27 06:40:11;;;;;;;51.55;21.70;;;;;;;;;;8397498;28;20048;-85
2022/10/27 06:44:13;;;;;;;58.35;23.58;;;;;;;;;;8397345;28;20492;-85
2022/10/27 06:48:16;;;;;;;71.53;31.73;;;;;;;;;;8397103;28;20128;-86
2022/10/27 06:52:19;;;;;;;51.63;24.40;;;;;;;;;;8397004;28;20051;-84
2022/10/27 06:56:23;;;;;;;30.98;17.55;;;;;;;;;;8396805;28;20064;-85
2022/10/27 07:00:26;;;;;;;35.28;17.48;;;;;;;;;;8396244;28;20040;-85
2022/10/27 07:04:28;;;;;;;36.70;19.50;;;;;;;;;;8396099;28;20744;-85
2022/10/27 07:08:30;;;;;;;45.33;21.15;;;;;;;;;;8396247;28;20063;-85
2022/10/27 07:12:34;;;;;;;39.42;18.40;;;;;;;;;;8396789;28;20040;-85
2022/10/27 07:16:37;;;;;;;37.35;17.35;;;;;;;;;;8389190;28;20098;-85
2022/10/27 07:20:40;;;;;;;43.72;22.67;;;;;;;;;;8393636;28;20071;-85
2022/10/27 07:24:42;;;;;;;47.08;23.88;;;;;;;;;;8394905;28;20067;-85
2022/10/27 07:28:46;;;;;;;25.92;16.30;;;;;;;;;;8395935;28;20048;-86
2022/10/27 07:32:49;;;;;;;20.63;13.43;;;;;;;;;;8395888;28;20056;-85
2022/10/27 07:36:51;;;;;;;23.05;12.32;;;;;;;;;;8395679;28;20079;-85
2022/10/27 07:40:55;;;;;;;19.95;13.30;;;;;;;;;;8395761;28;20052;-85
2022/10/27 07:44:59;;;;;;;26.30;14.75;;;;;;;;;;8387909;28;20053;-86
2022/10/27 07:49:02;;;;;;;21.13;15.52;;;;;;;;;;8362483;28;20072;-86
2022/10/27 07:53:04;;;;;;;24.92;18.23;;;;;;;;;;8362389;28;20124;-86
2022/10/27 07:57:07;;;;;;;20.25;14.13;;;;;;;;;;8362270;28;20053;-86
2022/10/27 08:01:10;;;;;;;78.38;37.35;;;;;;;;;;8361686;28;20128;-86
2022/10/27 08:05:14;;;;;;;24.30;15.77;;;;;;;;;;8330066;28;20077;-87
2022/10/27 08:09:23;;;;;;;20.63;14.10;;;;;;;;;;8356957;28;20125;-87
2022/10/27 08:13:37;;;;;;;24.85;14.80;;;;;;;;;;8356649;28;20064;-86
2022/10/27 08:17:42;;;;;;;21.92;15.20;;;;;;;;;;8357361;28;20126;-87
2022/10/27 08:21:46;;;;;;;21.02;15.52;;;;;;;;;;8357195;28;20101;-87
2022/10/27 08:25:49;;;;;;;22.35;14.40;;;;;;;;;;8356624;28;20059;-87
2022/10/27 08:29:52;;;;;;;18.27;12.15;;;;;;;;;;8332651;28;20049;-87
2022/10/27 08:33:56;;;;;;;18.50;12.40;;;;;;;;;;8356871;28;20660;-87
2022/10/27 08:38:00;;;;;;;21.65;15.85;;;;;;;;;;8357244;28;20045;-86
2022/10/27 08:42:06;;;;;;;19.20;13.25;;;;;;;;;;8356707;28;20048;-88
2022/10/27 08:46:16;;;;;;;21.05;15.15;;;;;;;;;;8355803;28;20398;-87
2022/10/27 08:50:23;;;;;;;20.48;13.80;;;;;;;;;;8359104;28;20068;-86
2022/10/27 08:54:27;;;;;;;19.77;13.02;;;;;;;;;;8362357;28;20044;-86
2022/10/27 08:58:37;;;;;;;24.13;15.88;;;;;;;;;;8362659;28;20045;-86
2022/10/27 09:03:26;;;;;;;16.10;10.73;;;;;;;;;;8362506;28;20460;-88
2022/10/27 09:07:37;;;;;;;40.58;27.60;;;;;;;;;;8343860;28;20094;-89
2022/10/27 09:12:09;;;;;;;20.02;12.98;;;;;;;;;;8361087;28;20119;-88
2022/10/27 09:16:32;;;;;;;15.77;11.23;;;;;;;;;;8361696;28;20099;-86
2022/10/27 09:20:47;;;;;;;15.57;10.32;;;;;;;;;;8350182;28;20531;-88
2022/10/27 09:24:58;;;;;;;18.40;13.93;;;;;;;;;;8361319;28;20540;-89
2022/10/27 09:29:16;;;;;;;15.38;10.65;;;;;;;;;;8361578;28;20071;-87
2022/10/27 09:33:28;;;;;;;14.00;10.27;;;;;;;;;;8360842;28;20049;-87
2022/10/27 09:37:33;;;;;;;17.27;10.40;;;;;;;;;;8360780;28;20120;-88
2022/10/27 09:41:37;;;;;;;14.27;9.82;;;;;;;;;;8352937;28;20045;-86
2022/10/27 09:45:41;;;;;;;15.05;9.32;;;;;;;;;;8384092;28;20064;-88
2022/10/27 09:49:50;;;;;;;14.95;8.63;;;;;;;;;;8379943;28;20404;-88
2022/10/27 09:53:53;;;;;;;11.68;7.45;;;;;;;;;;8380990;28;20558;-86
2022/10/27 09:58:02;;;;;;;14.45;9.63;;;;;;;;;;8393147;28;20087;-87
2022/10/27 10:02:06;;;;;;;11.80;7.28;;;;;;;;;;8393897;28;20420;-88
2022/10/27 10:06:29;;;;;;;12.57;7.63;;;;;;;;;;8380056;28;20390;-87
2022/10/27 10:10:32;;;;;;;14.20;8.18;;;;;;;;;;8381602;28;20454;-87
2022/10/27 10:14:36;;;;;;;13.20;7.10;;;;;;;;;;8392712;28;20051;-88
2022/10/27 10:18:40;;;;;;;13.18;8.05;;;;;;;;;;8386806;28;20064;-87
2022/10/27 10:22:43;;;;;;;14.52;7.57;;;;;;;;;;8391067;28;20044;-86
2022/10/27 10:26:48;;;;;;;13.02;7.13;;;;;;;;;;8391530;28;20055;-86
2022/10/27 10:30:55;;;;;;;11.15;6.32;;;;;;;;;;8378805;28;20054;-88
2022/10/27 10:34:59;;;;;;;17.98;9.70;;;;;;;;;;8392018;28;20048;-86
2022/10/27 10:39:03;;;;;;;10.57;5.88;;;;;;;;;;8389872;28;20048;-86
2022/10/27 10:43:14;;;;;;;10.95;6.68;;;;;;;;;;8385070;28;20552;-87
2022/10/27 10:47:26;;;;;;;10.07;6.20;;;;;;;;;;8385983;28;20083;-86
2022/10/27 10:51:31;;;;;;;11.35;6.10;;;;;;;;;;8377436;28;20059;-86
2022/10/27 10:55:36;;;;;;;24.95;17.50;;;;;;;;;;8391563;28;20048;-86
2022/10/27 10:59:46;;;;;;;8.82;4.78;;;;;;;;;;8392062;28;20058;-86
2022/10/27 11:03:54;;;;;;;9.20;4.65;;;;;;;;;;8390543;28;20439;-86
2022/10/27 11:07:57;;;;;;;8.02;4.68;;;;;;;;;;8393242;28;20052;-86
2022/10/27 11:12:02;;;;;;;13.55;5.13;;;;;;;;;;8394940;28;20049;-88
2022/10/27 11:16:07;;;;;;;9.68;5.50;;;;;;;;;;8396818;28;20561;-88
2022/10/27 11:20:24;;;;;;;10.10;6.07;;;;;;;;;;8397015;28;20055;-89
2022/10/27 11:24:30;;;;;;;13.30;7.05;;;;;;;;;;8383910;28;20048;-88
2022/10/27 11:28:41;;;;;;;11.40;5.00;;;;;;;;;;8395975;28;20408;-87
2022/10/27 11:32:51;;;;;;;9.77;5.35;;;;;;;;;;8396178;28;20097;-88
2022/10/27 11:36:59;;;;;;;12.00;7.00;;;;;;;;;;8395862;28;20434;-89
2022/10/27 11:41:09;;;;;;;14.98;5.65;;;;;;;;;;8395831;28;20037;-88
2022/10/27 11:45:17;;;;;;;9.27;5.60;;;;;;;;;;8395482;28;20499;-88
2022/10/27 11:49:28;;;;;;;9.32;6.53;;;;;;;;;;8395622;28;20044;-88
2022/10/27 11:53:33;;;;;;;11.75;6.60;;;;;;;;;;8396074;28;20499;-86
2022/10/27 11:57:43;;;;;;;9.82;6.18;;;;;;;;;;8395384;28;20045;-87
2022/10/27 12:02:08;;;;;;;11.32;6.40;;;;;;;;;;8385126;28;20048;-87
2022/10/27 12:06:20;;;;;;;12.40;6.32;;;;;;;;;;8375713;28;20464;-87
2022/10/27 12:15:01;;;;;;;10.18;6.03;;;;;;;;;;8377379;28;20061;-86
2022/10/27 12:19:09;;;;;;;9.68;6.15;;;;;;;;;;8353242;28;20147;-87
2022/10/27 12:23:16;;;;;;;10.90;5.70;;;;;;;;;;8374458;28;20480;-87
2022/10/27 12:27:28;;;;;;;9.63;5.85;;;;;;;;;;8395781;28;20098;-88
2022/10/27 12:31:32;;;;;;;11.50;6.32;;;;;;;;;;8395581;28;20075;-87
2022/10/27 12:35:45;;;;;;;9.52;6.57;;;;;;;;;;8391548;28;20045;-87
2022/10/27 12:39:55;;;;;;;8.88;6.03;;;;;;;;;;8387834;28;20822;-87
2022/10/27 12:44:16;;;;;;;9.90;5.88;;;;;;;;;;8393927;28;20739;-86
2022/10/27 12:48:27;;;;;;;10.55;5.35;;;;;;;;;;8396262;28;20216;-90
2022/10/27 12:52:42;;;;;;;8.20;5.30;;;;;;;;;;8395815;28;20051;-88
2022/10/27 12:56:48;;;;;;;9.30;5.32;;;;;;;;;;8395231;28;20054;-87
2022/10/27 13:01:01;;;;;;;10.93;5.43;;;;;;;;;;8381675;28;20075;-89
2022/10/27 13:05:35;;;;;;;8.95;5.68;;;;;;;;;;8383858;28;20053;-86
2022/10/27 13:10:05;;;;;;;10.40;6.30;;;;;;;;;;8394135;28;20484;-86
2022/10/27 13:14:27;;;;;;;12.15;5.30;;;;;;;;;;8391798;28;20098;-88
2022/10/27 13:19:00;;;;;;;9.30;5.38;;;;;;;;;;8395331;28;20178;-88
2022/10/27 13:23:17;;;;;;;10.43;5.35;;;;;;;;;;8386751;28;20075;-88
2022/10/27 13:27:26;;;;;;;9.57;5.60;;;;;;;;;;8394777;28;20059;-87
2022/10/27 13:31:32;;;;;;;10.00;5.75;;;;;;;;;;8394486;28;20062;-88
2022/10/27 13:35:40;;;;;;;9.48;5.50;;;;;;;;;;8394342;28;20048;-88
2022/10/27 13:39:47;;;;;;;10.73;5.80;;;;;;;;;;8393311;28;20579;-86
2022/10/27 13:43:58;;;;;;;10.20;5.70;;;;;;;;;;8393104;28;20515;-87
2022/10/27 13:48:32;;;;;;;15.85;6.95;;;;;;;;;;8393338;28;20106;-88
2022/10/27 13:52:36;;;;;;;8.27;5.63;;;;;;;;;;8387344;28;20504;-89
2022/10/27 13:56:39;;;;;;;10.52;5.82;;;;;;;;;;8393128;28;20052;-88
2022/10/27 14:01:28;;;;;;;10.05;6.13;;;;;;;;;;8393818;28;20119;-91
2022/10/27 14:05:46;;;;;;;11.65;6.65;;;;;;;;;;8392109;28;20048;-88
2022/10/27 14:09:52;;;;;;;13.40;6.10;;;;;;;;;;8392284;28;20064;-87
2022/10/27 14:13:58;;;;;;;9.65;6.00;;;;;;;;;;8391011;28;20056;-87
2022/10/27 14:18:05;;;;;;;10.20;6.13;;;;;;;;;;8392371;28;20878;-88
2022/10/27 14:22:21;;;;;;;16.80;6.40;;;;;;;;;;8392471;28;20060;-87
2022/10/27 14:26:32;;;;;;;10.88;6.97;;;;;;;;;;8392210;28;20143;-87
2022/10/27 14:30:34;;;;;;;12.55;7.28;;;;;;;;;;8379264;28;20055;-86
2022/10/27 14:34:37;;;;;;;15.57;6.68;;;;;;;;;;8391702;28;20044;-87
2022/10/27 14:38:42;;;;;;;14.38;6.38;;;;;;;;;;8392080;28;20119;-87
2022/10/27 14:42:48;;;;;;;11.90;5.95;;;;;;;;;;8387682;28;20568;-88
2022/10/27 14:46:52;;;;;;;9.38;5.82;;;;;;;;;;8378052;28;20055;-87
2022/10/27 14:50:56;;;;;;;10.82;6.68;;;;;;;;;;8378061;28;20052;-87
2022/10/27 14:55:02;;;;;;;10.50;6.53;;;;;;;;;;8391748;28;20048;-87
2022/10/27 14:59:18;;;;;;;9.90;6.40;;;;;;;;;;8391779;28;20400;-87
2022/10/27 15:03:21;;;;;;;11.50;6.45;;;;;;;;;;8391209;28;20423;-87
2022/10/27 15:07:23;;;;;;;10.55;7.20;;;;;;;;;;8392055;28;20090;-86
2022/10/27 15:11:27;;;;;;;13.10;6.78;;;;;;;;;;8391265;28;20048;-88
2022/10/27 15:15:35;;;;;;;11.07;6.55;;;;;;;;;;8391798;28;20036;-88
2022/10/27 15:19:38;;;;;;;13.57;7.95;;;;;;;;;;8391109;28;20771;-87
2022/10/27 15:23:42;;;;;;;12.95;8.52;;;;;;;;;;8390784;28;20074;-88
2022/10/27 15:27:46;;;;;;;14.13;7.05;;;;;;;;;;8389884;28;20079;-87
2022/10/27 15:32:00;;;;;;;17.38;7.95;;;;;;;;;;8382596;28;20057;-86
2022/10/27 15:36:24;;;;;;;15.25;7.90;;;;;;;;;;8387894;28;20044;-86
2022/10/27 15:40:39;;;;;;;19.13;9.40;;;;;;;;;;8388022;28;20485;-88
2022/10/27 15:44:42;;;;;;;15.63;8.60;;;;;;;;;;8389804;28;21902;-87
2022/10/27 15:48:59;;;;;;;13.98;8.55;;;;;;;;;;8390817;28;20098;-87
2022/10/27 15:53:08;;;;;;;14.55;9.05;;;;;;;;;;8390176;28;20049;-88
2022/10/27 15:57:33;;;;;;;13.77;9.88;;;;;;;;;;8390201;28;20063;-87
2022/10/27 16:01:36;;;;;;;28.08;16.08;;;;;;;;;;8388462;28;20415;-88
2022/10/27 16:05:44;;;;;;;28.08;17.52;;;;;;;;;;8389244;28;20119;-87
2022/10/27 16:09:48;;;;;;;25.63;14.68;;;;;;;;;;8388552;28;20054;-87
2022/10/27 16:13:54;;;;;;;35.95;18.58;;;;;;;;;;8389959;28;20118;-85
2022/10/27 16:18:01;;;;;;;29.45;17.30;;;;;;;;;;8389781;28;20115;-87
2022/10/27 16:22:09;;;;;;;30.80;16.50;;;;;;;;;;8389204;28;20109;-86
2022/10/27 16:26:15;;;;;;;61.47;27.30;;;;;;;;;;8378935;28;20072;-87
2022/10/27 16:30:20;;;;;;;36.25;17.73;;;;;;;;;;8389309;28;20135;-87
2022/10/27 16:34:31;;;;;;;46.97;22.17;;;;;;;;;;8387994;28;20048;-87
2022/10/27 16:38:38;;;;;;;29.33;16.38;;;;;;;;;;8388328;28;20044;-85
2022/10/27 16:42:44;;;;;;;26.75;16.05;;;;;;;;;;8385609;28;20499;-87
2022/10/27 16:46:48;;;;;;;28.80;14.70;;;;;;;;;;8387915;28;20460;-87
2022/10/27 16:50:50;;;;;;;55.30;21.60;;;;;;;;;;8389213;28;20059;-87
2022/10/27 16:54:55;;;;;;;503.77;137.23;;;;;;;;;;8393080;28;20488;-87
2022/10/27 16:58:57;;;;;;;58.45;22.80;;;;;;;;;;8388218;28;20094;-87
2022/10/27 17:03:01;;;;;;;23.90;15.13;;;;;;;;;;8415263;28;20040;-87
2022/10/27 17:07:04;;;;;;;20.75;12.43;;;;;;;;;;8379963;28;20041;-85
2022/10/27 17:11:10;;;;;;;19.88;11.10;;;;;;;;;;8390411;28;20810;-86
2022/10/27 17:15:13;;;;;;;23.10;12.32;;;;;;;;;;8395043;28;20049;-87
2022/10/27 17:19:17;;;;;;;23.23;12.75;;;;;;;;;;8399020;28;20056;-86
2022/10/27 17:23:19;;;;;;;23.73;13.93;;;;;;;;;;8408834;28;20126;-86
2022/10/27 17:27:24;;;;;;;233.88;95.95;;;;;;;;;;8397150;28;20136;-85
2022/10/27 17:31:27;;;;;;;36.42;19.63;;;;;;;;;;8392675;28;20044;-86
2022/10/27 17:35:31;;;;;;;43.95;21.80;;;;;;;;;;8380102;28;20044;-86
2022/10/27 17:39:34;;;;;;;27.98;14.82;;;;;;;;;;8396598;28;20133;-85
2022/10/27 17:43:39;;;;;;;41.10;22.17;;;;;;;;;;8396113;28;20078;-86
2022/10/27 17:47:42;;;;;;;123.65;63.70;;;;;;;;;;8397887;28;20091;-86
2022/10/27 17:51:46;;;;;;;42.30;24.33;;;;;;;;;;8399213;28;20408;-86
2022/10/27 17:55:48;;;;;;;69.00;39.05;;;;;;;;;;8398906;28;20071;-85
2022/10/27 17:59:53;;;;;;;48.33;29.42;;;;;;;;;;8398947;28;20424;-86
2022/10/27 18:03:57;;;;;;;41.60;25.63;;;;;;;;;;8398814;28;20066;-86
2022/10/27 18:08:00;;;;;;;38.17;19.60;;;;;;;;;;8398693;28;20051;-86
2022/10/27 18:12:03;;;;;;;49.20;26.40;;;;;;;;;;8398666;28;20149;-85
2022/10/27 18:16:14;;;;;;;31.15;15.07;;;;;;;;;;8398264;28;20044;-86
2022/10/27 18:20:16;;;;;;;49.78;23.02;;;;;;;;;;8398396;28;20098;-85
2022/10/27 18:24:20;;;;;;;50.00;26.75;;;;;;;;;;8396937;28;20090;-85
2022/10/27 18:28:23;;;;;;;67.32;32.70;;;;;;;;;;8397878;28;20048;-87
2022/10/27 18:32:27;;;;;;;49.75;25.00;;;;;;;;;;8397761;28;20480;-86
2022/10/27 18:36:30;;;;;;;230.52;64.50;;;;;;;;;;8397790;28;20040;-86
2022/10/27 18:40:33;;;;;;;46.38;20.13;;;;;;;;;;8397534;28;20082;-86
2022/10/27 18:44:36;;;;;;;103.53;39.50;;;;;;;;;;8397170;28;20052;-85
2022/10/27 18:48:40;;;;;;;31.10;17.65;;;;;;;;;;8397153;28;20134;-85
2022/10/27 18:52:44;;;;;;;65.03;29.08;;;;;;;;;;8396952;28;20051;-86
2022/10/27 18:56:47;;;;;;;51.72;23.67;;;;;;;;;;8397100;28;20128;-86
2022/10/27 19:00:50;;;;;;;47.72;22.98;;;;;;;;;;8396926;28;20484;-86
2022/10/27 19:04:55;;;;;;;34.28;20.23;;;;;;;;;;8396792;28;20059;-87
2022/10/27 19:08:58;;;;;;;47.58;25.80;;;;;;;;;;8396641;28;20048;-87
2022/10/27 19:13:02;;;;;;;45.15;21.58;;;;;;;;;;8396443;28;20070;-85
2022/10/27 19:17:04;;;;;;;39.17;19.63;;;;;;;;;;8396448;28;20048;-86
2022/10/27 19:21:14;;;;;;;48.05;20.10;;;;;;;;;;8396258;28;20488;-85
2022/10/27 19:25:18;;;;;;;38.17;19.08;;;;;;;;;;8396079;28;20044;-85
2022/10/27 19:29:24;;;;;;;34.63;16.88;;;;;;;;;;8396011;28;20040;-86
2022/10/27 19:33:27;;;;;;;29.60;16.90;;;;;;;;;;8395665;28;20044;-86
2022/10/27 19:37:31;;;;;;;34.05;17.63;;;;;;;;;;8395907;28;20098;-86
2022/10/27 19:41:35;;;;;;;62.28;23.63;;;;;;;;;;8395917;28;20044;-85
2022/10/27 19:45:39;;;;;;;79.43;30.83;;;;;;;;;;8395745;28;20139;-86
2022/10/27 19:49:42;;;;;;;75.03;30.38;;;;;;;;;;8395490;28;20059;-86
2022/10/27 19:53:47;;;;;;;51.85;27.77;;;;;;;;;;8395847;28;20071;-85
2022/10/27 19:57:50;;;;;;;44.97;22.15;;;;;;;;;;8395653;28;20056;-85
2022/10/27 20:01:55;;;;;;;36.58;16.92;;;;;;;;;;8395540;28;20067;-86
2022/10/27 20:05:58;;;;;;;24.90;14.57;;;;;;;;;;8374002;28;20482;-85
2022/10/27 20:10:03;;;;;;;23.92;14.68;;;;;;;;;;8395340;28;20040;-85
2022/10/27 20:14:05;;;;;;;25.52;13.85;;;;;;;;;;8395509;28;20519;-86
2022/10/27 20:18:08;;;;;;;29.27;15.27;;;;;;;;;;8395201;28;20480;-86
2022/10/27 20:22:11;;;;;;;28.48;14.10;;;;;;;;;;8395239;28;20064;-86
2022/10/27 20:26:19;;;;;;;26.63;13.10;;;;;;;;;;8368555;28;20056;-86
2022/10/27 20:30:21;;;;;;;35.00;15.15;;;;;;;;;;8395005;28;20052;-85
2022/10/27 20:34:26;;;;;;;51.78;23.20;;;;;;;;;;8394857;28;20044;-86
2022/10/27 20:38:28;;;;;;;35.38;17.70;;;;;;;;;;8394933;28;20064;-86
2022/10/27 20:42:32;;;;;;;40.05;18.00;;;;;;;;;;8394985;28;20051;-85
2022/10/27 20:46:35;;;;;;;67.15;32.30;;;;;;;;;;8398198;28;20443;-85
2022/10/27 20:50:37;;;;;;;54.22;24.13;;;;;;;;;;8400858;28;20503;-86
2022/10/27 20:54:40;;;;;;;56.80;25.20;;;;;;;;;;8400850;28;20119;-85
2022/10/27 20:58:45;;;;;;;59.70;29.08;;;;;;;;;;8400921;28;20040;-85
2022/10/27 21:02:49;;;;;;;41.15;21.33;;;;;;;;;;8400597;28;20462;-85
2022/10/27 21:06:52;;;;;;;42.15;21.02;;;;;;;;;;8401915;28;20522;-85
2022/10/27 21:10:54;;;;;;;43.80;19.50;;;;;;;;;;8400496;28;20143;-85
2022/10/27 21:14:59;;;;;;;50.10;20.92;;;;;;;;;;8400285;28;20079;-87
2022/10/27 21:19:04;;;;;;;46.17;19.65;;;;;;;;;;8400676;28;20472;-85
2022/10/27 21:23:06;;;;;;;43.47;20.33;;;;;;;;;;8399899;28;20127;-86
2022/10/27 21:27:09;;;;;;;40.15;19.63;;;;;;;;;;8399749;28;20052;-85
2022/10/27 21:31:14;;;;;;;45.00;20.42;;;;;;;;;;8400117;28;20438;-88
2022/10/27 21:35:16;;;;;;;39.10;19.23;;;;;;;;;;8399913;28;20101;-85
2022/10/27 21:39:19;;;;;;;39.50;18.02;;;;;;;;;;8399614;28;20090;-86
2022/10/27 21:43:22;;;;;;;39.65;18.77;;;;;;;;;;8399443;28;20067;-86
2022/10/27 21:47:26;;;;;;;53.50;19.80;;;;;;;;;;8399353;28;20044;-86
2022/10/27 21:51:29;;;;;;;39.17;18.60;;;;;;;;;;8399290;28;20550;-86
2022/10/27 21:55:32;;;;;;;43.55;18.83;;;;;;;;;;8398909;28;20553;-87
2022/10/27 21:59:34;;;;;;;45.33;19.52;;;;;;;;;;8384920;28;20081;-85
2022/10/27 22:03:39;;;;;;;39.63;18.08;;;;;;;;;;8398963;28;20040;-86
2022/10/27 22:07:41;;;;;;;41.53;19.10;;;;;;;;;;8398507;28;20090;-85
2022/10/27 22:11:44;;;;;;;41.03;19.05;;;;;;;;;;8398450;28;20123;-86
2022/10/27 22:15:46;;;;;;;47.25;20.52;;;;;;;;;;8398626;28;20040;-86
2022/10/27 22:19:51;;;;;;;36.67;17.17;;;;;;;;;;8398201;28;20048;-85
2022/10/27 22:23:54;;;;;;;40.85;19.85;;;;;;;;;;8398081;28;20045;-85
2022/10/27 22:27:56;;;;;;;44.80;19.20;;;;;;;;;;8397984;28;20059;-84
2022/10/27 22:31:58;;;;;;;41.67;19.08;;;;;;;;;;8398059;28;20127;-85
2022/10/27 22:36:03;;;;;;;42.67;19.77;;;;;;;;;;8397700;28;20048;-86
2022/10/27 22:40:07;;;;;;;46.58;20.20;;;;;;;;;;8397643;28;20060;-86
2022/10/27 22:44:09;;;;;;;42.42;19.88;;;;;;;;;;8397342;28;20056;-85
2022/10/27 22:48:12;;;;;;;47.50;20.80;;;;;;;;;;8397437;28;20076;-85
2022/10/27 22:52:16;;;;;;;45.00;20.98;;;;;;;;;;8397531;28;20489;-85
2022/10/27 22:56:20;;;;;;;52.95;21.02;;;;;;;;;;8397690;28;20495;-86
2022/10/27 23:00:22;;;;;;;48.08;21.40;;;;;;;;;;8397001;28;20119;-85
2022/10/27 23:04:25;;;;;;;67.43;25.30;;;;;;;;;;8396694;28;20075;-85
2022/10/27 23:08:29;;;;;;;57.72;23.58;;;;;;;;;;8382009;28;20404;-85
2022/10/27 23:12:31;;;;;;;52.22;21.13;;;;;;;;;;8396634;28;20488;-86
2022/10/27 23:16:34;;;;;;;53.40;21.85;;;;;;;;;;8396374;28;20112;-86
2022/10/27 23:20:36;;;;;;;64.28;23.45;;;;;;;;;;8396151;28;20476;-85
2022/10/27 23:24:40;;;;;;;60.95;23.10;;;;;;;;;;8396029;28;20040;-85
2022/10/27 23:28:43;;;;;;;60.15;27.02;;;;;;;;;;8396698;28;20079;-86
2022/10/27 23:32:45;;;;;;;57.45;23.00;;;;;;;;;;8396172;28;20044;-85
2022/10/27 23:36:48;;;;;;;52.15;22.45;;;;;;;;;;8396114;28;20511;-85
2022/10/27 23:40:53;;;;;;;52.28;21.80;;;;;;;;;;8395939;28;20633;-84
2022/10/27 23:44:55;;;;;;;61.22;22.75;;;;;;;;;;8395730;28;20142;-86
2022/10/27 23:48:59;;;;;;;285.13;83.93;;;;;;;;;;8396118;28;20048;-85
2022/10/27 23:53:01;;;;;;;97.05;35.45;;;;;;;;;;8395825;28;20458;-87
2022/10/27 23:57:05;;;;;;;169.00;58.50;;;;;;;;;;8395738;28;20074;-86
